sensor_id;sensor_type;location;lat;lon;timestamp;temperature;humidity
65239;SHT30;51827;51.186;6.926;2023-09-19T00:00:26;23.32;64.46
65239;SHT30;51827;51.186;6.926;2023-09-19T00:01:27;23.32;64.46
65239;SHT30;51827;51.186;6.926;2023-09-19T00:02:27;23.30;64.46
65239;SHT30;51827;51.186;6.926;2023-09-19T00:03:28;23.30;64.49
65239;SHT30;51827;51.186;6.926;2023-09-19T00:04:31;23.30;64.50
65239;SHT30;51827;51.186;6.926;2023-09-19T00:05:34;23.27;64.51
65239;SHT30;51827;51.186;6.926;2023-09-19T00:06:36;23.29;64.50
65239;SHT30;51827;51.186;6.926;2023-09-19T00:07:36;23.30;64.50
65239;SHT30;51827;51.186;6.926;2023-09-19T00:08:37;23.30;64.50
65239;SHT30;51827;51.186;6.926;2023-09-19T00:09:37;23.30;64.46
65239;SHT30;51827;51.186;6.926;2023-09-19T00:10:37;23.32;64.43
65239;SHT30;51827;51.186;6.926;2023-09-19T00:11:37;23.30;64.45
65239;SHT30;51827;51.186;6.926;2023-09-19T00:12:43;23.29;64.45
65239;SHT30;51827;51.186;6.926;2023-09-19T00:13:43;23.30;64.43
65239;SHT30;51827;51.186;6.926;2023-09-19T00:14:43;23.29;64.45
65239;SHT30;51827;51.186;6.926;2023-09-19T00:15:45;23.30;64.41
65239;SHT30;51827;51.186;6.926;2023-09-19T00:16:45;23.29;64.43
65239;SHT30;51827;51.186;6.926;2023-09-19T00:17:46;23.30;64.44
65239;SHT30;51827;51.186;6.926;2023-09-19T00:18:46;23.32;64.42
65239;SHT30;51827;51.186;6.926;2023-09-19T00:19:47;23.29;64.42
65239;SHT30;51827;51.186;6.926;2023-09-19T00:20:47;23.29;64.47
65239;SHT30;51827;51.186;6.926;2023-09-19T00:21:47;23.27;64.46
65239;SHT30;51827;51.186;6.926;2023-09-19T00:22:48;23.27;64.48
65239;SHT30;51827;51.186;6.926;2023-09-19T00:23:49;23.30;64.52
65239;SHT30;51827;51.186;6.926;2023-09-19T00:24:49;23.27;64.53
65239;SHT30;51827;51.186;6.926;2023-09-19T00:25:50;23.30;64.49
65239;SHT30;51827;51.186;6.926;2023-09-19T00:26:50;23.24;64.55
65239;SHT30;51827;51.186;6.926;2023-09-19T00:27:51;23.27;64.49
65239;SHT30;51827;51.186;6.926;2023-09-19T00:28:54;23.26;64.45
65239;SHT30;51827;51.186;6.926;2023-09-19T00:29:54;23.26;64.45
65239;SHT30;51827;51.186;6.926;2023-09-19T00:30:54;23.26;64.47
65239;SHT30;51827;51.186;6.926;2023-09-19T00:31:55;23.24;64.47
65239;SHT30;51827;51.186;6.926;2023-09-19T00:32:56;23.30;64.50
65239;SHT30;51827;51.186;6.926;2023-09-19T00:33:56;23.26;64.50
65239;SHT30;51827;51.186;6.926;2023-09-19T00:34:56;23.27;64.49
65239;SHT30;51827;51.186;6.926;2023-09-19T00:35:57;23.29;64.51
65239;SHT30;51827;51.186;6.926;2023-09-19T00:36:57;23.29;64.50
65239;SHT30;51827;51.186;6.926;2023-09-19T00:37:57;23.26;64.51
65239;SHT30;51827;51.186;6.926;2023-09-19T00:38:57;23.26;64.53
65239;SHT30;51827;51.186;6.926;2023-09-19T00:39:58;23.27;64.54
65239;SHT30;51827;51.186;6.926;2023-09-19T00:40:58;23.26;64.54
65239;SHT30;51827;51.186;6.926;2023-09-19T00:41:58;23.26;64.50
65239;SHT30;51827;51.186;6.926;2023-09-19T00:42:58;23.26;64.52
65239;SHT30;51827;51.186;6.926;2023-09-19T00:43:59;23.26;64.54
65239;SHT30;51827;51.186;6.926;2023-09-19T00:44:59;23.26;64.53
65239;SHT30;51827;51.186;6.926;2023-09-19T00:46:00;23.26;64.52
65239;SHT30;51827;51.186;6.926;2023-09-19T00:47:00;23.24;64.53
65239;SHT30;51827;51.186;6.926;2023-09-19T00:48:01;23.24;64.52
65239;SHT30;51827;51.186;6.926;2023-09-19T00:49:01;23.26;64.49
65239;SHT30;51827;51.186;6.926;2023-09-19T00:50:03;23.26;64.50
65239;SHT30;51827;51.186;6.926;2023-09-19T00:51:04;23.23;64.54
65239;SHT30;51827;51.186;6.926;2023-09-19T00:52:05;23.26;64.51
65239;SHT30;51827;51.186;6.926;2023-09-19T00:53:05;23.24;64.52
65239;SHT30;51827;51.186;6.926;2023-09-19T00:54:05;23.24;64.50
65239;SHT30;51827;51.186;6.926;2023-09-19T00:55:07;23.22;64.50
65239;SHT30;51827;51.186;6.926;2023-09-19T00:56:08;23.24;64.53
65239;SHT30;51827;51.186;6.926;2023-09-19T00:57:08;23.24;64.51
65239;SHT30;51827;51.186;6.926;2023-09-19T00:58:09;23.22;64.51
65239;SHT30;51827;51.186;6.926;2023-09-19T00:59:09;23.22;64.53
65239;SHT30;51827;51.186;6.926;2023-09-19T01:00:10;23.24;64.56
65239;SHT30;51827;51.186;6.926;2023-09-19T01:01:10;23.23;64.51
65239;SHT30;51827;51.186;6.926;2023-09-19T01:02:11;23.24;64.50
65239;SHT30;51827;51.186;6.926;2023-09-19T01:03:11;23.23;64.49
65239;SHT30;51827;51.186;6.926;2023-09-19T01:04:12;23.20;64.47
65239;SHT30;51827;51.186;6.926;2023-09-19T01:05:12;23.24;64.47
65239;SHT30;51827;51.186;6.926;2023-09-19T01:06:13;23.22;64.47
65239;SHT30;51827;51.186;6.926;2023-09-19T01:07:13;23.22;64.47
65239;SHT30;51827;51.186;6.926;2023-09-19T01:08:14;23.24;64.52
65239;SHT30;51827;51.186;6.926;2023-09-19T01:09:14;23.20;64.51
65239;SHT30;51827;51.186;6.926;2023-09-19T01:10:17;23.22;64.50
65239;SHT30;51827;51.186;6.926;2023-09-19T01:11:23;23.20;64.48
65239;SHT30;51827;51.186;6.926;2023-09-19T01:12:55;23.23;64.46
65239;SHT30;51827;51.186;6.926;2023-09-19T01:15:28;23.19;64.50
65239;SHT30;51827;51.186;6.926;2023-09-19T01:17:14;23.23;64.43
65239;SHT30;51827;51.186;6.926;2023-09-19T01:18:20;23.20;64.43
65239;SHT30;51827;51.186;6.926;2023-09-19T01:22:21;23.19;64.44
65239;SHT30;51827;51.186;6.926;2023-09-19T01:23:46;23.18;64.44
65239;SHT30;51827;51.186;6.926;2023-09-19T01:25:13;23.19;64.49
65239;SHT30;51827;51.186;6.926;2023-09-19T01:27:38;23.22;64.50
65239;SHT30;51827;51.186;6.926;2023-09-19T01:30:32;23.19;64.49
65239;SHT30;51827;51.186;6.926;2023-09-19T01:31:34;23.19;64.54
65239;SHT30;51827;51.186;6.926;2023-09-19T01:32:38;23.18;64.49
65239;SHT30;51827;51.186;6.926;2023-09-19T01:34:01;23.16;64.51
65239;SHT30;51827;51.186;6.926;2023-09-19T01:35:02;23.18;64.52
65239;SHT30;51827;51.186;6.926;2023-09-19T01:36:02;23.16;64.52
65239;SHT30;51827;51.186;6.926;2023-09-19T01:37:03;23.19;64.50
65239;SHT30;51827;51.186;6.926;2023-09-19T01:38:03;23.18;64.49
65239;SHT30;51827;51.186;6.926;2023-09-19T01:39:12;23.18;64.52
65239;SHT30;51827;51.186;6.926;2023-09-19T01:40:15;23.18;64.50
65239;SHT30;51827;51.186;6.926;2023-09-19T01:41:26;23.16;64.50
65239;SHT30;51827;51.186;6.926;2023-09-19T01:42:41;23.16;64.47
65239;SHT30;51827;51.186;6.926;2023-09-19T01:43:45;23.18;64.54
65239;SHT30;51827;51.186;6.926;2023-09-19T01:46:08;23.19;64.51
65239;SHT30;51827;51.186;6.926;2023-09-19T01:47:19;23.18;64.45
65239;SHT30;51827;51.186;6.926;2023-09-19T01:48:41;23.18;64.49
65239;SHT30;51827;51.186;6.926;2023-09-19T01:49:55;23.15;64.47
65239;SHT30;51827;51.186;6.926;2023-09-19T01:51:06;23.15;64.46
65239;SHT30;51827;51.186;6.926;2023-09-19T01:52:11;23.16;64.50
65239;SHT30;51827;51.186;6.926;2023-09-19T01:53:28;23.16;64.50
65239;SHT30;51827;51.186;6.926;2023-09-19T01:54:33;23.15;64.48
65239;SHT30;51827;51.186;6.926;2023-09-19T01:55:41;23.16;64.51
65239;SHT30;51827;51.186;6.926;2023-09-19T01:56:50;23.15;64.50
65239;SHT30;51827;51.186;6.926;2023-09-19T01:59:16;23.16;64.45
65239;SHT30;51827;51.186;6.926;2023-09-19T02:00:18;23.15;64.46
65239;SHT30;51827;51.186;6.926;2023-09-19T02:01:22;23.15;64.50
65239;SHT30;51827;51.186;6.926;2023-09-19T02:02:25;23.15;64.49
65239;SHT30;51827;51.186;6.926;2023-09-19T02:03:26;23.18;64.51
65239;SHT30;51827;51.186;6.926;2023-09-19T02:04:26;23.13;64.51
65239;SHT30;51827;51.186;6.926;2023-09-19T02:05:27;23.13;64.51
65239;SHT30;51827;51.186;6.926;2023-09-19T02:06:27;23.13;64.50
65239;SHT30;51827;51.186;6.926;2023-09-19T02:07:27;23.13;64.51
65239;SHT30;51827;51.186;6.926;2023-09-19T02:08:27;23.12;64.46
65239;SHT30;51827;51.186;6.926;2023-09-19T02:09:28;23.13;64.52
65239;SHT30;51827;51.186;6.926;2023-09-19T02:10:28;23.15;64.50
65239;SHT30;51827;51.186;6.926;2023-09-19T02:11:28;23.12;64.49
65239;SHT30;51827;51.186;6.926;2023-09-19T02:12:28;23.16;64.48
65239;SHT30;51827;51.186;6.926;2023-09-19T02:13:29;23.15;64.48
65239;SHT30;51827;51.186;6.926;2023-09-19T02:14:30;23.12;64.45
65239;SHT30;51827;51.186;6.926;2023-09-19T02:15:30;23.13;64.45
65239;SHT30;51827;51.186;6.926;2023-09-19T02:16:30;23.16;64.44
65239;SHT30;51827;51.186;6.926;2023-09-19T02:17:31;23.13;64.47
65239;SHT30;51827;51.186;6.926;2023-09-19T02:18:31;23.13;64.49
65239;SHT30;51827;51.186;6.926;2023-09-19T02:19:31;23.12;64.45
65239;SHT30;51827;51.186;6.926;2023-09-19T02:20:31;23.12;64.47
65239;SHT30;51827;51.186;6.926;2023-09-19T02:21:32;23.10;64.46
65239;SHT30;51827;51.186;6.926;2023-09-19T02:22:32;23.15;64.42
65239;SHT30;51827;51.186;6.926;2023-09-19T02:23:33;23.12;64.46
65239;SHT30;51827;51.186;6.926;2023-09-19T02:24:33;23.13;64.46
65239;SHT30;51827;51.186;6.926;2023-09-19T02:25:34;23.13;64.45
65239;SHT30;51827;51.186;6.926;2023-09-19T02:26:34;23.13;64.42
65239;SHT30;51827;51.186;6.926;2023-09-19T02:27:35;23.13;64.44
65239;SHT30;51827;51.186;6.926;2023-09-19T02:28:35;23.10;64.46
65239;SHT30;51827;51.186;6.926;2023-09-19T02:29:35;23.15;64.46
65239;SHT30;51827;51.186;6.926;2023-09-19T02:30:35;23.10;64.47
65239;SHT30;51827;51.186;6.926;2023-09-19T02:31:36;23.13;64.46
65239;SHT30;51827;51.186;6.926;2023-09-19T02:32:36;23.12;64.46
65239;SHT30;51827;51.186;6.926;2023-09-19T02:33:36;23.15;64.47
65239;SHT30;51827;51.186;6.926;2023-09-19T02:34:37;23.12;64.43
65239;SHT30;51827;51.186;6.926;2023-09-19T02:35:37;23.12;64.47
65239;SHT30;51827;51.186;6.926;2023-09-19T02:36:37;23.12;64.45
65239;SHT30;51827;51.186;6.926;2023-09-19T02:37:38;23.12;64.43
65239;SHT30;51827;51.186;6.926;2023-09-19T02:38:38;23.10;64.48
65239;SHT30;51827;51.186;6.926;2023-09-19T02:39:38;23.12;64.46
65239;SHT30;51827;51.186;6.926;2023-09-19T02:40:39;23.13;64.46
65239;SHT30;51827;51.186;6.926;2023-09-19T02:41:39;23.12;64.46
65239;SHT30;51827;51.186;6.926;2023-09-19T02:42:42;23.10;64.46
65239;SHT30;51827;51.186;6.926;2023-09-19T02:43:42;23.13;64.46
65239;SHT30;51827;51.186;6.926;2023-09-19T02:44:43;23.12;64.45
65239;SHT30;51827;51.186;6.926;2023-09-19T02:45:43;23.09;64.46
65239;SHT30;51827;51.186;6.926;2023-09-19T02:46:43;23.10;64.46
65239;SHT30;51827;51.186;6.926;2023-09-19T02:47:44;23.10;64.49
65239;SHT30;51827;51.186;6.926;2023-09-19T02:48:45;23.10;64.49
65239;SHT30;51827;51.186;6.926;2023-09-19T02:49:45;23.10;64.46
65239;SHT30;51827;51.186;6.926;2023-09-19T02:50:49;23.12;64.46
65239;SHT30;51827;51.186;6.926;2023-09-19T02:51:49;23.09;64.44
65239;SHT30;51827;51.186;6.926;2023-09-19T02:52:49;23.09;64.49
65239;SHT30;51827;51.186;6.926;2023-09-19T02:53:50;23.08;64.46
65239;SHT30;51827;51.186;6.926;2023-09-19T02:54:51;23.12;64.46
65239;SHT30;51827;51.186;6.926;2023-09-19T02:55:51;23.12;64.45
65239;SHT30;51827;51.186;6.926;2023-09-19T02:56:51;23.08;64.47
65239;SHT30;51827;51.186;6.926;2023-09-19T02:57:53;23.10;64.47
65239;SHT30;51827;51.186;6.926;2023-09-19T02:58:53;23.09;64.45
65239;SHT30;51827;51.186;6.926;2023-09-19T02:59:53;23.09;64.44
65239;SHT30;51827;51.186;6.926;2023-09-19T03:00:54;23.08;64.46
65239;SHT30;51827;51.186;6.926;2023-09-19T03:01:54;23.08;64.51
65239;SHT30;51827;51.186;6.926;2023-09-19T03:02:55;23.09;64.46
65239;SHT30;51827;51.186;6.926;2023-09-19T03:03:55;23.09;64.44
65239;SHT30;51827;51.186;6.926;2023-09-19T03:04:55;23.08;64.46
65239;SHT30;51827;51.186;6.926;2023-09-19T03:05:56;23.09;64.45
65239;SHT30;51827;51.186;6.926;2023-09-19T03:06:56;23.06;64.47
65239;SHT30;51827;51.186;6.926;2023-09-19T03:07:57;23.09;64.50
65239;SHT30;51827;51.186;6.926;2023-09-19T03:08:57;23.08;64.47
65239;SHT30;51827;51.186;6.926;2023-09-19T03:09:57;23.10;64.44
65239;SHT30;51827;51.186;6.926;2023-09-19T03:10:58;23.08;64.50
65239;SHT30;51827;51.186;6.926;2023-09-19T03:11:58;23.08;64.47
65239;SHT30;51827;51.186;6.926;2023-09-19T03:12:58;23.10;64.44
65239;SHT30;51827;51.186;6.926;2023-09-19T03:14:01;23.08;64.47
65239;SHT30;51827;51.186;6.926;2023-09-19T03:15:02;23.06;64.42
65239;SHT30;51827;51.186;6.926;2023-09-19T03:16:02;23.08;64.48
65239;SHT30;51827;51.186;6.926;2023-09-19T03:17:03;23.08;64.41
65239;SHT30;51827;51.186;6.926;2023-09-19T03:18:03;23.09;64.45
65239;SHT30;51827;51.186;6.926;2023-09-19T03:19:04;23.08;64.45
65239;SHT30;51827;51.186;6.926;2023-09-19T03:20:04;23.08;64.44
65239;SHT30;51827;51.186;6.926;2023-09-19T03:21:05;23.06;64.48
65239;SHT30;51827;51.186;6.926;2023-09-19T03:22:05;23.08;64.46
65239;SHT30;51827;51.186;6.926;2023-09-19T03:23:06;23.08;64.45
65239;SHT30;51827;51.186;6.926;2023-09-19T03:24:06;23.05;64.46
65239;SHT30;51827;51.186;6.926;2023-09-19T03:25:07;23.05;64.44
65239;SHT30;51827;51.186;6.926;2023-09-19T03:26:07;23.05;64.44
65239;SHT30;51827;51.186;6.926;2023-09-19T03:27:11;23.05;64.45
65239;SHT30;51827;51.186;6.926;2023-09-19T03:28:11;23.05;64.46
65239;SHT30;51827;51.186;6.926;2023-09-19T03:29:12;23.03;64.45
65239;SHT30;51827;51.186;6.926;2023-09-19T03:30:12;23.05;64.48
65239;SHT30;51827;51.186;6.926;2023-09-19T03:31:13;23.06;64.47
65239;SHT30;51827;51.186;6.926;2023-09-19T03:32:13;23.06;64.44
65239;SHT30;51827;51.186;6.926;2023-09-19T03:33:13;23.02;64.45
65239;SHT30;51827;51.186;6.926;2023-09-19T03:34:13;23.05;64.42
65239;SHT30;51827;51.186;6.926;2023-09-19T03:35:14;23.05;64.41
65239;SHT30;51827;51.186;6.926;2023-09-19T03:36:14;23.05;64.44
65239;SHT30;51827;51.186;6.926;2023-09-19T03:37:14;23.03;64.46
65239;SHT30;51827;51.186;6.926;2023-09-19T03:38:15;23.03;64.43
65239;SHT30;51827;51.186;6.926;2023-09-19T03:39:15;23.03;64.47
65239;SHT30;51827;51.186;6.926;2023-09-19T03:40:15;23.08;64.46
65239;SHT30;51827;51.186;6.926;2023-09-19T03:41:16;23.02;64.45
65239;SHT30;51827;51.186;6.926;2023-09-19T03:42:16;23.05;64.47
65239;SHT30;51827;51.186;6.926;2023-09-19T03:43:16;23.02;64.47
65239;SHT30;51827;51.186;6.926;2023-09-19T03:44:16;23.06;64.47
65239;SHT30;51827;51.186;6.926;2023-09-19T03:45:17;23.02;64.47
65239;SHT30;51827;51.186;6.926;2023-09-19T03:46:17;23.02;64.47
65239;SHT30;51827;51.186;6.926;2023-09-19T03:47:18;23.05;64.43
65239;SHT30;51827;51.186;6.926;2023-09-19T03:48:18;23.03;64.43
65239;SHT30;51827;51.186;6.926;2023-09-19T03:49:18;23.00;64.45
65239;SHT30;51827;51.186;6.926;2023-09-19T03:50:19;23.02;64.47
65239;SHT30;51827;51.186;6.926;2023-09-19T03:51:19;23.03;64.43
65239;SHT30;51827;51.186;6.926;2023-09-19T03:52:19;22.99;64.47
65239;SHT30;51827;51.186;6.926;2023-09-19T03:53:19;23.02;64.43
65239;SHT30;51827;51.186;6.926;2023-09-19T03:54:20;23.02;64.46
65239;SHT30;51827;51.186;6.926;2023-09-19T03:55:20;23.00;64.44
65239;SHT30;51827;51.186;6.926;2023-09-19T03:56:20;23.02;64.39
65239;SHT30;51827;51.186;6.926;2023-09-19T03:57:20;23.00;64.34
65239;SHT30;51827;51.186;6.926;2023-09-19T03:58:21;23.00;64.40
65239;SHT30;51827;51.186;6.926;2023-09-19T03:59:21;23.03;64.45
65239;SHT30;51827;51.186;6.926;2023-09-19T04:00:21;23.00;64.51
65239;SHT30;51827;51.186;6.926;2023-09-19T04:01:22;23.02;64.46
65239;SHT30;51827;51.186;6.926;2023-09-19T04:02:23;23.00;64.43
65239;SHT30;51827;51.186;6.926;2023-09-19T04:03:23;23.03;64.39
65239;SHT30;51827;51.186;6.926;2023-09-19T04:04:24;23.00;64.41
65239;SHT30;51827;51.186;6.926;2023-09-19T04:05:24;23.02;64.40
65239;SHT30;51827;51.186;6.926;2023-09-19T04:06:24;22.99;64.41
65239;SHT30;51827;51.186;6.926;2023-09-19T04:07:25;23.02;64.41
65239;SHT30;51827;51.186;6.926;2023-09-19T04:08:25;23.02;64.43
65239;SHT30;51827;51.186;6.926;2023-09-19T04:09:25;23.00;64.39
65239;SHT30;51827;51.186;6.926;2023-09-19T04:10:25;22.99;64.42
65239;SHT30;51827;51.186;6.926;2023-09-19T04:11:26;22.99;64.39
65239;SHT30;51827;51.186;6.926;2023-09-19T04:12:26;22.99;64.44
65239;SHT30;51827;51.186;6.926;2023-09-19T04:13:26;22.98;64.46
65239;SHT30;51827;51.186;6.926;2023-09-19T04:14:26;23.00;64.39
65239;SHT30;51827;51.186;6.926;2023-09-19T04:15:27;22.98;64.43
65239;SHT30;51827;51.186;6.926;2023-09-19T04:16:27;23.00;64.44
65239;SHT30;51827;51.186;6.926;2023-09-19T04:17:27;22.98;64.37
65239;SHT30;51827;51.186;6.926;2023-09-19T04:18:27;22.98;64.34
65239;SHT30;51827;51.186;6.926;2023-09-19T04:19:28;22.99;64.34
65239;SHT30;51827;51.186;6.926;2023-09-19T04:20:28;22.96;64.41
65239;SHT30;51827;51.186;6.926;2023-09-19T04:21:28;22.98;64.37
65239;SHT30;51827;51.186;6.926;2023-09-19T04:22:28;22.99;64.36
65239;SHT30;51827;51.186;6.926;2023-09-19T04:23:29;22.99;64.39
65239;SHT30;51827;51.186;6.926;2023-09-19T04:24:29;22.98;64.42
65239;SHT30;51827;51.186;6.926;2023-09-19T04:25:29;22.98;64.43
65239;SHT30;51827;51.186;6.926;2023-09-19T04:26:30;22.98;64.44
65239;SHT30;51827;51.186;6.926;2023-09-19T04:27:31;22.99;64.39
65239;SHT30;51827;51.186;6.926;2023-09-19T04:28:32;22.99;64.37
65239;SHT30;51827;51.186;6.926;2023-09-19T04:29:32;22.98;64.36
65239;SHT30;51827;51.186;6.926;2023-09-19T04:30:32;22.98;64.40
65239;SHT30;51827;51.186;6.926;2023-09-19T04:31:33;22.95;64.39
65239;SHT30;51827;51.186;6.926;2023-09-19T04:32:33;22.95;64.41
65239;SHT30;51827;51.186;6.926;2023-09-19T04:33:33;22.96;64.36
65239;SHT30;51827;51.186;6.926;2023-09-19T04:34:33;22.96;64.41
65239;SHT30;51827;51.186;6.926;2023-09-19T04:35:34;22.95;64.44
65239;SHT30;51827;51.186;6.926;2023-09-19T04:36:34;22.94;64.46
65239;SHT30;51827;51.186;6.926;2023-09-19T04:37:39;22.95;64.42
65239;SHT30;51827;51.186;6.926;2023-09-19T04:38:40;22.96;64.42
65239;SHT30;51827;51.186;6.926;2023-09-19T04:39:40;22.98;64.40
65239;SHT30;51827;51.186;6.926;2023-09-19T04:40:40;22.94;64.41
65239;SHT30;51827;51.186;6.926;2023-09-19T04:41:40;22.96;64.38
65239;SHT30;51827;51.186;6.926;2023-09-19T04:42:41;22.96;64.36
65239;SHT30;51827;51.186;6.926;2023-09-19T04:43:41;22.95;64.35
65239;SHT30;51827;51.186;6.926;2023-09-19T04:44:41;22.96;64.33
65239;SHT30;51827;51.186;6.926;2023-09-19T04:45:41;22.96;64.32
65239;SHT30;51827;51.186;6.926;2023-09-19T04:46:42;22.98;64.36
65239;SHT30;51827;51.186;6.926;2023-09-19T04:47:42;22.98;64.37
65239;SHT30;51827;51.186;6.926;2023-09-19T04:48:42;22.94;64.32
65239;SHT30;51827;51.186;6.926;2023-09-19T04:49:42;22.95;64.32
65239;SHT30;51827;51.186;6.926;2023-09-19T04:50:43;22.95;64.29
65239;SHT30;51827;51.186;6.926;2023-09-19T04:51:43;22.95;64.28
65239;SHT30;51827;51.186;6.926;2023-09-19T04:52:44;22.98;64.27
65239;SHT30;51827;51.186;6.926;2023-09-19T04:53:44;22.94;64.31
65239;SHT30;51827;51.186;6.926;2023-09-19T04:54:44;22.92;64.31
65239;SHT30;51827;51.186;6.926;2023-09-19T04:55:45;22.95;64.32
65239;SHT30;51827;51.186;6.926;2023-09-19T04:56:45;22.94;64.34
65239;SHT30;51827;51.186;6.926;2023-09-19T04:57:46;22.92;64.35
65239;SHT30;51827;51.186;6.926;2023-09-19T04:58:47;22.94;64.33
65239;SHT30;51827;51.186;6.926;2023-09-19T04:59:47;22.95;64.33
65239;SHT30;51827;51.186;6.926;2023-09-19T05:00:47;22.94;64.32
65239;SHT30;51827;51.186;6.926;2023-09-19T05:01:47;22.95;64.28
65239;SHT30;51827;51.186;6.926;2023-09-19T05:02:51;22.94;64.28
65239;SHT30;51827;51.186;6.926;2023-09-19T05:03:52;22.89;64.27
65239;SHT30;51827;51.186;6.926;2023-09-19T05:04:52;22.92;64.28
65239;SHT30;51827;51.186;6.926;2023-09-19T05:05:52;22.92;64.24
65239;SHT30;51827;51.186;6.926;2023-09-19T05:06:52;22.94;64.34
65239;SHT30;51827;51.186;6.926;2023-09-19T05:07:53;22.94;64.31
65239;SHT30;51827;51.186;6.926;2023-09-19T05:08:53;22.92;64.27
65239;SHT30;51827;51.186;6.926;2023-09-19T05:09:53;22.94;64.29
65239;SHT30;51827;51.186;6.926;2023-09-19T05:10:53;22.92;64.32
65239;SHT30;51827;51.186;6.926;2023-09-19T05:11:54;22.91;64.27
65239;SHT30;51827;51.186;6.926;2023-09-19T05:12:55;22.94;64.25
65239;SHT30;51827;51.186;6.926;2023-09-19T05:13:55;22.91;64.21
65239;SHT30;51827;51.186;6.926;2023-09-19T05:14:55;22.92;64.19
65239;SHT30;51827;51.186;6.926;2023-09-19T05:16:00;22.94;64.22
65239;SHT30;51827;51.186;6.926;2023-09-19T05:17:00;22.91;64.25
65239;SHT30;51827;51.186;6.926;2023-09-19T05:18:00;22.91;64.19
65239;SHT30;51827;51.186;6.926;2023-09-19T05:19:00;22.89;64.19
65239;SHT30;51827;51.186;6.926;2023-09-19T05:20:03;22.92;64.25
65239;SHT30;51827;51.186;6.926;2023-09-19T05:21:04;22.91;64.28
65239;SHT30;51827;51.186;6.926;2023-09-19T05:22:04;22.92;64.25
65239;SHT30;51827;51.186;6.926;2023-09-19T05:23:05;22.91;64.23
65239;SHT30;51827;51.186;6.926;2023-09-19T05:24:06;22.89;64.18
65239;SHT30;51827;51.186;6.926;2023-09-19T05:25:07;22.89;64.18
65239;SHT30;51827;51.186;6.926;2023-09-19T05:26:07;22.91;64.21
65239;SHT30;51827;51.186;6.926;2023-09-19T05:27:07;22.91;64.22
65239;SHT30;51827;51.186;6.926;2023-09-19T05:28:10;22.91;64.27
65239;SHT30;51827;51.186;6.926;2023-09-19T05:29:10;22.91;64.23
65239;SHT30;51827;51.186;6.926;2023-09-19T05:30:11;22.89;64.24
65239;SHT30;51827;51.186;6.926;2023-09-19T05:31:11;22.88;64.21
65239;SHT30;51827;51.186;6.926;2023-09-19T05:32:11;22.88;64.24
65239;SHT30;51827;51.186;6.926;2023-09-19T05:33:12;22.88;64.22
65239;SHT30;51827;51.186;6.926;2023-09-19T05:34:12;22.88;64.21
65239;SHT30;51827;51.186;6.926;2023-09-19T05:35:12;22.91;64.24
65239;SHT30;51827;51.186;6.926;2023-09-19T05:36:12;22.88;64.25
65239;SHT30;51827;51.186;6.926;2023-09-19T05:37:13;22.88;64.24
65239;SHT30;51827;51.186;6.926;2023-09-19T05:38:13;22.88;64.20
65239;SHT30;51827;51.186;6.926;2023-09-19T05:39:14;22.86;64.20
65239;SHT30;51827;51.186;6.926;2023-09-19T05:40:14;22.86;64.22
65239;SHT30;51827;51.186;6.926;2023-09-19T05:41:14;22.88;64.28
65239;SHT30;51827;51.186;6.926;2023-09-19T05:42:14;22.88;64.28
65239;SHT30;51827;51.186;6.926;2023-09-19T05:43:15;22.89;64.20
65239;SHT30;51827;51.186;6.926;2023-09-19T05:44:15;22.85;64.27
65239;SHT30;51827;51.186;6.926;2023-09-19T05:45:15;22.88;64.27
65239;SHT30;51827;51.186;6.926;2023-09-19T05:46:16;22.88;64.29
65239;SHT30;51827;51.186;6.926;2023-09-19T05:47:16;22.86;64.23
65239;SHT30;51827;51.186;6.926;2023-09-19T05:48:16;22.89;64.21
65239;SHT30;51827;51.186;6.926;2023-09-19T05:49:17;22.88;64.18
65239;SHT30;51827;51.186;6.926;2023-09-19T05:50:17;22.89;64.21
65239;SHT30;51827;51.186;6.926;2023-09-19T05:51:18;22.88;64.22
65239;SHT30;51827;51.186;6.926;2023-09-19T05:52:18;22.89;64.19
65239;SHT30;51827;51.186;6.926;2023-09-19T05:53:18;22.86;64.20
65239;SHT30;51827;51.186;6.926;2023-09-19T05:54:18;22.86;64.23
65239;SHT30;51827;51.186;6.926;2023-09-19T05:55:19;22.86;64.18
65239;SHT30;51827;51.186;6.926;2023-09-19T05:56:19;22.88;64.15
65239;SHT30;51827;51.186;6.926;2023-09-19T05:57:19;22.85;64.16
65239;SHT30;51827;51.186;6.926;2023-09-19T05:58:20;22.88;64.15
65239;SHT30;51827;51.186;6.926;2023-09-19T05:59:20;22.86;64.09
65239;SHT30;51827;51.186;6.926;2023-09-19T06:00:22;22.86;64.10
65239;SHT30;51827;51.186;6.926;2023-09-19T06:01:22;22.86;64.08
65239;SHT30;51827;51.186;6.926;2023-09-19T06:02:22;22.85;64.03
65239;SHT30;51827;51.186;6.926;2023-09-19T06:03:23;22.85;64.05
65239;SHT30;51827;51.186;6.926;2023-09-19T06:04:23;22.86;64.06
65239;SHT30;51827;51.186;6.926;2023-09-19T06:05:27;22.85;64.00
65239;SHT30;51827;51.186;6.926;2023-09-19T06:06:27;22.86;64.08
65239;SHT30;51827;51.186;6.926;2023-09-19T06:07:27;22.86;63.96
65239;SHT30;51827;51.186;6.926;2023-09-19T06:08:28;22.85;63.94
65239;SHT30;51827;51.186;6.926;2023-09-19T06:09:28;22.85;63.86
65239;SHT30;51827;51.186;6.926;2023-09-19T06:10:28;22.86;63.87
65239;SHT30;51827;51.186;6.926;2023-09-19T06:11:28;22.85;63.84
65239;SHT30;51827;51.186;6.926;2023-09-19T06:12:29;22.85;63.91
65239;SHT30;51827;51.186;6.926;2023-09-19T06:13:29;22.85;63.92
65239;SHT30;51827;51.186;6.926;2023-09-19T06:14:29;22.82;63.90
65239;SHT30;51827;51.186;6.926;2023-09-19T06:15:29;22.84;63.85
65239;SHT30;51827;51.186;6.926;2023-09-19T06:16:30;22.85;63.83
65239;SHT30;51827;51.186;6.926;2023-09-19T06:17:30;22.86;63.79
65239;SHT30;51827;51.186;6.926;2023-09-19T06:18:31;22.85;63.67
65239;SHT30;51827;51.186;6.926;2023-09-19T06:19:32;22.82;63.67
65239;SHT30;51827;51.186;6.926;2023-09-19T06:20:32;22.85;63.69
65239;SHT30;51827;51.186;6.926;2023-09-19T06:21:32;22.84;63.70
65239;SHT30;51827;51.186;6.926;2023-09-19T06:22:33;22.85;63.62
65239;SHT30;51827;51.186;6.926;2023-09-19T06:23:34;22.82;63.65
65239;SHT30;51827;51.186;6.926;2023-09-19T06:24:35;22.82;63.60
65239;SHT30;51827;51.186;6.926;2023-09-19T06:25:35;22.84;63.63
65239;SHT30;51827;51.186;6.926;2023-09-19T06:26:35;22.82;63.52
65239;SHT30;51827;51.186;6.926;2023-09-19T06:27:35;22.82;63.49
65239;SHT30;51827;51.186;6.926;2023-09-19T06:28:36;22.84;63.46
65239;SHT30;51827;51.186;6.926;2023-09-19T06:29:36;22.82;63.42
65239;SHT30;51827;51.186;6.926;2023-09-19T06:30:36;22.85;63.33
65239;SHT30;51827;51.186;6.926;2023-09-19T06:31:38;22.82;63.34
65239;SHT30;51827;51.186;6.926;2023-09-19T06:32:42;22.82;63.34
65239;SHT30;51827;51.186;6.926;2023-09-19T06:33:42;22.84;63.27
65239;SHT30;51827;51.186;6.926;2023-09-19T06:34:42;22.82;63.09
65239;SHT30;51827;51.186;6.926;2023-09-19T06:35:42;22.81;62.96
65239;SHT30;51827;51.186;6.926;2023-09-19T06:36:43;22.82;63.02
65239;SHT30;51827;51.186;6.926;2023-09-19T06:37:43;22.84;63.02